createdAt,value
2019-04-03T00:00:43.381Z,4.90
2019-04-03T00:03:11.923Z,5.05
2019-04-03T00:05:40.416Z,4.42
2019-04-03T00:08:08.964Z,5.37
2019-04-03T00:10:38.089Z,5.05
2019-04-03T00:13:06.901Z,4.40
2019-04-03T00:15:35.481Z,4.60
2019-04-03T00:18:04.198Z,4.78
2019-04-03T00:20:32.810Z,4.40
2019-04-03T00:23:01.329Z,4.60
2019-04-03T00:25:30.159Z,4.20
2019-04-03T00:27:58.707Z,4.72
2019-04-03T00:30:27.208Z,4.42
2019-04-03T00:32:55.798Z,4.92
2019-04-03T00:35:24.334Z,4.80
2019-04-03T00:37:53.754Z,4.40
2019-04-03T00:40:22.695Z,4.33
2019-04-03T00:42:54.149Z,4.30
2019-04-03T00:45:24.484Z,4.40
2019-04-03T00:47:55.357Z,4.53
2019-04-03T00:50:26.045Z,4.40
2019-04-03T00:52:53.636Z,4.62
2019-04-03T00:55:22.212Z,4.55
2019-04-03T00:57:50.756Z,4.90
2019-04-03T01:00:19.580Z,4.83
2019-04-03T01:02:48.200Z,4.55
2019-04-03T01:05:16.712Z,4.55
2019-04-03T01:07:45.264Z,3.80
2019-04-03T01:10:14.397Z,4.15
2019-04-03T01:12:42.958Z,4.53
2019-04-03T01:15:11.865Z,4.72
2019-04-03T01:17:40.342Z,4.60
2019-04-03T01:20:09.657Z,4.12
2019-04-03T01:22:38.359Z,4.05
2019-04-03T01:25:08.843Z,4.17
2019-04-03T01:27:37.412Z,4.15
2019-04-03T01:30:07.422Z,5.03
2019-04-03T01:32:36.042Z,5.05
2019-04-03T01:35:05.424Z,4.85
2019-04-03T01:37:34.010Z,4.97
2019-04-03T01:40:05.129Z,4.60
2019-04-03T01:42:33.913Z,5.47
2019-04-03T01:45:02.598Z,5.55
2019-04-03T01:47:31.148Z,5.42
2019-04-03T01:49:59.628Z,5.55
2019-04-03T01:52:28.192Z,5.80
2019-04-03T01:54:56.661Z,6.30
2019-04-03T01:57:25.183Z,6.30
2019-04-03T01:59:53.815Z,5.60
2019-04-03T02:02:22.544Z,6.17
2019-04-03T02:04:51.081Z,5.67
2019-04-03T02:07:19.717Z,6.58
2019-04-03T02:09:48.222Z,6.55
2019-04-03T02:12:17.964Z,6.62
2019-04-03T02:14:46.961Z,5.83
2019-04-03T02:17:15.529Z,5.42
2019-04-03T02:19:44.061Z,6.35
2019-04-03T02:22:12.552Z,5.58
2019-04-03T02:24:41.085Z,5.40
2019-04-03T02:27:09.609Z,6.00
2019-04-03T02:29:39.853Z,4.97
2019-04-03T02:32:08.394Z,5.87
2019-04-03T02:34:36.967Z,5.60
2019-04-03T02:37:05.588Z,6.25
2019-04-03T02:39:34.131Z,5.47
2019-04-03T02:42:02.694Z,6.60
2019-04-03T02:44:31.333Z,6.15
2019-04-03T02:47:01.330Z,7.53
2019-04-03T02:49:30.019Z,7.08
2019-04-03T02:51:58.918Z,7.25
2019-04-03T02:54:30.227Z,7.00
2019-04-03T02:56:59.228Z,6.97
2019-04-03T02:59:27.776Z,6.87
2019-04-03T03:01:56.505Z,9.28
2019-04-03T03:04:26.131Z,6.70
2019-04-03T03:06:54.921Z,7.50
2019-04-03T03:09:23.852Z,9.35
2019-04-03T03:11:54.860Z,7.10
2019-04-03T03:14:23.988Z,8.08
2019-04-03T03:16:53.221Z,9.88
2019-04-03T03:19:23.261Z,8.05
2019-04-03T03:21:54.605Z,8.15
2019-04-03T03:24:23.803Z,8.18
2019-04-03T03:26:52.888Z,6.92
2019-04-03T03:29:25.092Z,6.30
2019-04-03T03:32:11.569Z,6.97
2019-04-03T03:34:45.148Z,7.25
2019-04-03T03:37:00.638Z,6.67
2019-04-03T03:39:25.179Z,6.90
2019-04-03T03:41:58.191Z,7.05
2019-04-03T03:44:26.972Z,6.70
2019-04-03T03:46:59.741Z,7.37
2019-04-03T03:49:26.901Z,7.00
2019-04-03T03:51:56.074Z,7.40
2019-04-03T03:54:25.681Z,7.08
2019-04-03T03:56:54.795Z,6.45
2019-04-03T03:59:24.158Z,6.40
2019-04-03T04:01:52.858Z,7.20
2019-04-03T04:04:21.832Z,6.83
2019-04-03T04:06:50.666Z,6.60
2019-04-03T04:09:19.415Z,7.15
2019-04-03T04:11:48.142Z,7.75
2019-04-03T04:14:21.416Z,7.53
2019-04-03T04:16:47.675Z,9.65
2019-04-03T04:19:16.769Z,9.88
2019-04-03T04:21:45.379Z,7.72
2019-04-03T04:24:14.371Z,9.20
2019-04-03T04:26:43.431Z,8.63
2019-04-03T04:29:12.549Z,7.25
2019-04-03T04:31:43.319Z,7.83
2019-04-03T04:34:11.554Z,8.25
2019-04-03T04:36:40.103Z,9.48
2019-04-03T04:39:09.492Z,9.25
2019-04-03T04:41:38.000Z,9.05
2019-04-03T04:44:09.450Z,7.72
2019-04-03T04:46:36.762Z,7.55
2019-04-03T04:49:05.330Z,9.23
2019-04-03T04:51:33.953Z,7.67
2019-04-03T04:54:02.534Z,9.03
2019-04-03T04:56:31.077Z,7.92
2019-04-03T04:58:59.658Z,8.28
2019-04-03T05:01:28.201Z,8.85
2019-04-03T05:03:56.697Z,9.45
2019-04-03T05:06:25.250Z,8.73
2019-04-03T05:08:53.817Z,8.15
2019-04-03T05:11:22.285Z,9.55
2019-04-03T05:13:50.777Z,9.18
2019-04-03T05:16:20.688Z,10.90
2019-04-03T05:18:49.449Z,9.55
2019-04-03T05:21:17.931Z,9.05
2019-04-03T05:23:46.764Z,8.18
2019-04-03T05:26:15.235Z,9.45
2019-04-03T05:28:54.300Z,10.40
2019-04-03T05:31:14.164Z,9.23
2019-04-03T05:33:42.895Z,8.95
2019-04-03T05:36:11.398Z,10.18
2019-04-03T05:38:39.935Z,9.70
2019-04-03T05:41:08.501Z,8.83
2019-04-03T05:43:37.048Z,8.15
2019-04-03T05:46:06.309Z,9.30
2019-04-03T05:48:34.942Z,9.03
2019-04-03T05:51:03.739Z,10.98
2019-04-03T05:53:32.625Z,8.80
2019-04-03T05:56:01.184Z,9.30
2019-04-03T05:58:29.666Z,9.60
2019-04-03T06:01:05.394Z,8.63
2019-04-03T06:03:39.209Z,11.28
2019-04-03T06:05:58.662Z,10.53
2019-04-03T06:08:27.209Z,11.20
2019-04-03T06:10:55.773Z,9.73
2019-04-03T06:13:24.388Z,10.28
2019-04-03T06:15:53.730Z,9.68
2019-04-03T06:18:22.577Z,10.58
2019-04-03T06:20:52.903Z,9.93
2019-04-03T06:23:22.041Z,12.15
2019-04-03T06:25:50.676Z,12.63
2019-04-03T06:28:19.167Z,9.70
2019-04-03T06:30:47.732Z,10.20
2019-04-03T06:33:16.286Z,8.70
2019-04-03T06:35:46.022Z,7.95
2019-04-03T06:38:14.644Z,6.72
2019-04-03T06:40:43.216Z,6.72
2019-04-03T06:43:11.971Z,6.53
2019-04-03T06:45:43.026Z,6.05
2019-04-03T06:48:10.749Z,6.53
2019-04-03T06:50:39.330Z,6.22
2019-04-03T06:53:07.882Z,5.95
2019-04-03T06:55:36.627Z,6.40
2019-04-03T06:58:05.298Z,6.67
2019-04-03T07:00:33.861Z,6.80
2019-04-03T07:03:03.845Z,7.00
2019-04-03T07:05:32.774Z,7.25
2019-04-03T07:08:02.927Z,6.95
2019-04-03T07:10:31.554Z,6.65
2019-04-03T07:13:00.168Z,6.05
2019-04-03T07:15:28.749Z,5.50
2019-04-03T07:17:57.333Z,5.50
2019-04-03T07:20:25.843Z,5.50
2019-04-03T07:22:54.392Z,5.30
2019-04-03T07:25:22.901Z,5.50
2019-04-03T07:27:51.401Z,5.78
2019-04-03T07:30:21.729Z,5.80
2019-04-03T07:32:50.314Z,4.78
2019-04-03T07:35:18.853Z,4.80
2019-04-03T07:37:48.986Z,4.80
2019-04-03T07:40:18.718Z,4.55
2019-04-03T07:42:47.941Z,4.28
2019-04-03T07:45:16.569Z,4.80
2019-04-03T07:47:45.146Z,4.50
2019-04-03T07:50:14.372Z,4.55
2019-04-03T07:52:42.919Z,3.80
2019-04-03T07:55:11.540Z,3.92
2019-04-03T07:57:41.404Z,4.00
2019-04-03T08:00:11.312Z,3.98
2019-04-03T08:02:40.346Z,3.87
2019-04-03T08:05:09.404Z,3.70
2019-04-03T08:07:38.212Z,3.90
2019-04-03T08:10:07.161Z,3.60
2019-04-03T08:12:36.058Z,3.58
2019-04-03T08:15:07.178Z,4.30
2019-04-03T08:17:35.868Z,3.47
2019-04-03T08:20:06.512Z,3.92
2019-04-03T08:22:35.102Z,3.52
2019-04-03T08:25:04.533Z,3.70
2019-04-03T08:27:33.098Z,3.50
2019-04-03T08:30:01.653Z,2.75
2019-04-03T08:32:30.233Z,3.25
2019-04-03T08:34:58.811Z,2.70
2019-04-03T08:37:30.873Z,2.87
2019-04-03T08:39:58.803Z,3.12
2019-04-03T08:42:28.088Z,2.50
2019-04-03T08:44:57.225Z,2.90
2019-04-03T08:47:25.807Z,2.80
2019-04-03T08:49:56.216Z,2.83
2019-04-03T08:52:24.590Z,3.42
2019-04-03T08:54:53.142Z,3.20
2019-04-03T08:57:30.568Z,3.45
2019-04-03T09:00:00.727Z,3.17
2019-04-03T09:05:57.504Z,3.40
2019-04-03T09:08:26.721Z,3.25
2019-04-03T09:10:55.997Z,3.55
2019-04-03T09:13:24.844Z,3.60
2019-04-03T09:15:53.398Z,6.10
2019-04-03T09:18:21.983Z,7.78
2019-04-03T09:20:50.546Z,9.20
2019-04-03T09:23:19.145Z,3.80
2019-04-03T09:25:47.704Z,7.30
2019-04-03T09:28:35.247Z,3.92
2019-04-03T09:31:42.975Z,7.62
2019-04-03T09:34:13.619Z,5.75
2019-04-03T09:36:42.316Z,4.40
2019-04-03T09:39:13.940Z,4.28
2019-04-03T09:41:42.252Z,3.70
2019-04-03T09:44:12.803Z,3.87
2019-04-03T09:46:41.356Z,3.77
2019-04-03T09:49:10.108Z,3.65
2019-04-03T09:51:38.702Z,3.55
2019-04-03T09:54:07.198Z,3.50
2019-04-03T09:56:37.518Z,3.52
2019-04-03T09:59:06.739Z,3.77
2019-04-03T10:01:36.085Z,3.30
2019-04-03T10:04:05.711Z,3.22
2019-04-03T10:06:34.308Z,3.30
2019-04-03T10:09:03.118Z,3.67
2019-04-03T10:11:33.768Z,3.60
2019-04-03T10:14:02.275Z,3.42
2019-04-03T10:16:30.832Z,3.77
2019-04-03T10:18:59.344Z,3.87
2019-04-03T10:21:27.820Z,3.72
2019-04-03T10:23:59.098Z,3.90
2019-04-03T10:26:26.876Z,4.00
2019-04-03T10:28:55.457Z,4.42
2019-04-03T10:31:24.713Z,4.30
2019-04-03T10:33:53.469Z,4.28
2019-04-03T10:36:22.021Z,4.40
2019-04-03T10:38:50.601Z,4.33
2019-04-03T10:41:19.524Z,4.35
2019-04-03T10:43:48.114Z,4.15
2019-04-03T10:46:18.990Z,4.20
2019-04-03T10:48:46.897Z,4.53
2019-04-03T10:51:15.473Z,4.20
2019-04-03T10:53:44.180Z,4.20
2019-04-03T10:56:12.754Z,4.53
2019-04-03T10:58:43.195Z,4.10
2019-04-03T11:01:11.614Z,4.85
2019-04-03T11:03:40.190Z,4.30
2019-04-03T11:06:08.751Z,4.20
2019-04-03T11:08:37.398Z,3.90
2019-04-03T11:11:05.953Z,3.77
2019-04-03T11:13:34.845Z,4.05
2019-04-03T11:16:03.689Z,3.85
2019-04-03T11:18:32.473Z,4.12
2019-04-03T11:21:01.107Z,3.90
2019-04-03T11:23:38.748Z,4.00
2019-04-03T11:25:59.928Z,4.28
2019-04-03T11:28:28.486Z,4.08
2019-04-03T11:31:01.170Z,4.00
2019-04-03T11:33:27.528Z,3.72
2019-04-03T11:35:56.400Z,3.58
2019-04-03T11:38:28.553Z,4.05
2019-04-03T11:40:55.261Z,4.03
2019-04-03T11:43:24.260Z,4.08
2019-04-03T11:45:53.092Z,3.98
2019-04-03T11:48:21.646Z,4.30
2019-04-03T11:50:50.157Z,4.95
2019-04-03T11:53:18.716Z,4.67
2019-04-03T11:55:47.339Z,4.05
2019-04-03T11:58:15.844Z,4.08
2019-04-03T12:00:46.381Z,4.28
2019-04-03T12:03:14.967Z,4.85
2019-04-03T12:05:43.714Z,5.25
2019-04-03T12:08:13.042Z,4.62
2019-04-03T12:10:41.738Z,4.55
2019-04-03T12:13:12.478Z,5.15
2019-04-03T12:15:40.475Z,6.50
2019-04-03T12:18:10.812Z,5.50
2019-04-03T12:20:43.797Z,5.60
2019-04-03T12:23:09.521Z,5.78
2019-04-03T12:25:40.484Z,5.30
2019-04-03T12:28:08.710Z,5.97
2019-04-03T12:30:37.243Z,5.85
2019-04-03T12:33:05.800Z,6.08
2019-04-03T12:35:34.376Z,6.22
2019-04-03T12:38:02.944Z,6.40
2019-04-03T12:40:32.725Z,6.35
2019-04-03T12:43:02.111Z,6.35
2019-04-03T12:45:30.713Z,5.75
2019-04-03T12:47:59.261Z,5.97
2019-04-03T12:50:28.245Z,6.87
2019-04-03T12:52:57.308Z,5.67
2019-04-03T12:55:26.306Z,5.72
2019-04-03T12:57:55.716Z,5.35
2019-04-03T13:00:24.890Z,5.55
2019-04-03T13:02:53.577Z,5.20
2019-04-03T13:05:22.288Z,5.40
2019-04-03T13:07:51.118Z,5.80
2019-04-03T13:10:20.101Z,5.60
2019-04-03T13:12:48.677Z,5.40
2019-04-03T13:15:18.436Z,6.12
2019-04-03T13:17:47.057Z,5.90
2019-04-03T13:20:16.045Z,5.90
2019-04-03T13:22:44.980Z,6.78
2019-04-03T13:25:15.175Z,6.30
2019-04-03T13:27:44.087Z,5.83
2019-04-03T13:30:14.492Z,5.80
2019-04-03T13:32:43.101Z,5.75
2019-04-03T13:35:15.994Z,5.85
2019-04-03T13:37:43.372Z,6.10
2019-04-03T13:40:12.346Z,5.45
2019-04-03T13:42:40.972Z,5.78
2019-04-03T13:45:10.400Z,5.70
2019-04-03T13:47:41.115Z,5.75
2019-04-03T13:50:11.631Z,5.47
2019-04-03T13:52:43.944Z,5.85
2019-04-03T13:55:10.485Z,5.22
2019-04-03T13:57:39.440Z,6.40
2019-04-03T14:00:18.303Z,6.40
2019-04-03T14:02:40.134Z,6.25
2019-04-03T14:05:09.053Z,4.62
2019-04-03T14:07:40.544Z,5.75
2019-04-03T14:10:09.766Z,6.33
2019-04-03T14:12:42.972Z,6.10
2019-04-03T14:15:08.953Z,5.83
2019-04-03T14:17:37.548Z,6.50
2019-04-03T14:20:08.633Z,6.03
2019-04-03T14:22:37.404Z,6.33
2019-04-03T14:25:17.991Z,6.50
2019-04-03T14:27:37.316Z,5.95
2019-04-03T14:30:11.780Z,6.65
2019-04-03T14:32:40.299Z,6.85
2019-04-03T14:35:34.177Z,6.75
2019-04-03T14:37:39.706Z,7.28
2019-04-03T14:40:10.945Z,6.90
2019-04-03T14:42:39.088Z,8.08
2019-04-03T14:45:12.693Z,7.25
2019-04-03T14:47:39.625Z,8.03
2019-04-03T14:50:08.495Z,8.40
2019-04-03T14:52:37.279Z,11.38
2019-04-03T14:55:19.950Z,6.58
2019-04-03T14:57:39.305Z,6.60
2019-04-03T15:00:25.304Z,7.53
2019-04-03T15:02:41.299Z,6.62
2019-04-03T15:05:10.671Z,6.42
2019-04-03T15:07:39.329Z,6.95
2019-04-03T15:10:08.446Z,6.97
2019-04-03T15:12:39.754Z,7.42
2019-04-03T15:15:09.466Z,8.43
2019-04-03T15:17:38.712Z,9.08
2019-04-03T15:20:09.360Z,9.45
2019-04-03T15:22:38.139Z,10.28
2019-04-03T15:25:08.634Z,10.55
2019-04-03T15:27:37.295Z,11.22
2019-04-03T15:30:10.509Z,10.72
2019-04-03T15:32:37.702Z,10.32
2019-04-03T15:35:06.876Z,10.48
2019-04-03T15:37:35.444Z,10.82
2019-04-03T15:40:05.717Z,11.05
2019-04-03T15:42:34.701Z,10.32
2019-04-03T15:45:03.677Z,10.40
2019-04-03T15:47:36.544Z,10.75
2019-04-03T15:50:03.205Z,10.55
2019-04-03T15:52:31.758Z,9.80
2019-04-03T15:55:02.048Z,9.83
2019-04-03T15:57:30.876Z,10.20
2019-04-03T16:00:01.802Z,10.53
2019-04-03T16:02:30.006Z,10.72
2019-04-03T16:04:59.952Z,9.60
2019-04-03T16:07:28.645Z,11.15
2019-04-03T16:09:57.222Z,9.63
2019-04-03T16:12:25.833Z,9.73
2019-04-03T16:14:54.384Z,7.75
2019-04-03T16:17:22.935Z,8.83
2019-04-03T16:19:52.442Z,7.47
2019-04-03T16:22:21.615Z,7.15
2019-04-03T16:24:50.153Z,7.62
2019-04-03T16:27:18.718Z,6.35
2019-04-03T16:29:47.227Z,4.72
2019-04-03T16:32:16.406Z,3.90
2019-04-03T16:34:45.251Z,3.00
2019-04-03T16:37:13.977Z,2.67
2019-04-03T16:39:42.581Z,4.62
2019-04-03T16:42:11.181Z,5.45
2019-04-03T16:44:39.767Z,5.70
2019-04-03T16:47:08.333Z,6.67
2019-04-03T16:49:36.941Z,6.00
2019-04-03T16:52:06.175Z,4.08
2019-04-03T16:54:34.805Z,5.15
2019-04-03T16:57:03.696Z,5.70
2019-04-03T16:59:35.342Z,6.17
2019-04-03T17:02:02.618Z,5.53
2019-04-03T17:04:31.217Z,5.20
2019-04-03T17:06:59.829Z,6.17
2019-04-03T17:09:28.400Z,3.42
2019-04-03T17:11:56.881Z,2.80
2019-04-03T17:14:25.758Z,3.45
2019-04-03T17:16:54.317Z,2.50
2019-04-03T17:19:22.885Z,2.45
2019-04-03T17:21:51.524Z,2.25
2019-04-03T17:24:20.157Z,2.08
2019-04-03T17:26:53.425Z,1.70
2019-04-03T17:29:18.909Z,2.52
2019-04-03T17:31:47.467Z,2.58
2019-04-03T17:34:16.116Z,3.00
2019-04-03T17:36:44.674Z,2.17
2019-04-03T17:39:13.507Z,2.77
2019-04-03T17:41:42.029Z,2.40
2019-04-03T17:44:11.998Z,2.30
2019-04-03T17:46:40.831Z,2.30
2019-04-03T17:49:09.361Z,3.87
2019-04-03T17:51:37.858Z,2.70
2019-04-03T17:54:07.849Z,2.62
2019-04-03T17:56:36.841Z,3.50
2019-04-03T17:59:05.473Z,4.50
2019-04-03T18:01:36.420Z,4.72
2019-04-03T18:04:05.144Z,4.83
2019-04-03T18:06:33.709Z,4.90
2019-04-03T18:09:04.042Z,4.40
2019-04-03T18:11:32.904Z,4.90
2019-04-03T18:14:01.446Z,4.65
2019-04-03T18:16:30.319Z,5.37
2019-04-03T18:18:58.872Z,4.65
2019-04-03T18:21:27.445Z,5.17
2019-04-03T18:23:55.993Z,6.00
2019-04-03T18:26:24.503Z,7.25
2019-04-03T18:28:53.055Z,4.95
2019-04-03T18:31:21.637Z,3.62
2019-04-03T18:33:50.193Z,4.10
2019-04-03T18:36:18.753Z,4.10
2019-04-03T18:38:47.237Z,3.45
2019-04-03T18:41:16.897Z,3.00
2019-04-03T18:43:45.920Z,2.87
2019-04-03T18:46:14.491Z,2.90
2019-04-03T18:48:52.925Z,3.00
2019-04-03T18:51:13.255Z,2.85
2019-04-03T18:53:41.800Z,2.95
2019-04-03T18:56:10.315Z,3.37
2019-04-03T18:58:38.930Z,3.37
2019-04-03T19:01:07.639Z,3.20
2019-04-03T19:03:36.393Z,3.42
2019-04-03T19:06:05.552Z,3.83
2019-04-03T19:08:34.084Z,4.30
2019-04-03T19:11:07.571Z,3.77
2019-04-03T19:13:32.846Z,4.17
2019-04-03T19:16:02.425Z,4.42
2019-04-03T19:18:32.092Z,5.47
2019-04-03T19:21:00.661Z,4.53
2019-04-03T19:23:29.213Z,4.60
2019-04-03T19:25:59.655Z,5.35
2019-04-03T19:28:27.978Z,4.87
2019-04-03T19:30:56.583Z,5.65
2019-04-03T19:33:25.141Z,5.50
2019-04-03T19:35:53.729Z,5.33
2019-04-03T19:38:22.291Z,5.87
2019-04-03T19:40:50.847Z,5.95
2019-04-03T19:43:19.428Z,6.22
2019-04-03T19:45:47.970Z,7.33
2019-04-03T19:48:16.480Z,12.58
2019-04-03T19:50:45.049Z,7.83
2019-04-03T19:53:14.076Z,8.80
2019-04-03T19:55:42.684Z,7.97
2019-04-03T19:58:11.276Z,7.00
2019-04-03T20:00:39.923Z,9.78
2019-04-03T20:03:08.479Z,9.95
2019-04-03T20:05:37.037Z,9.80
2019-04-03T20:08:05.542Z,8.63
2019-04-03T20:10:34.335Z,11.25
2019-04-03T20:13:02.994Z,12.90
2019-04-03T20:15:31.487Z,11.25
2019-04-03T20:18:00.063Z,8.40
2019-04-03T20:20:33.602Z,9.40
2019-04-03T20:23:01.609Z,7.37
2019-04-03T20:25:30.169Z,8.55
2019-04-03T20:27:58.834Z,12.90
2019-04-03T20:30:27.404Z,8.60
2019-04-03T20:32:55.982Z,8.45
2019-04-03T20:35:24.525Z,9.00
2019-04-03T20:37:53.101Z,9.73
2019-04-03T20:40:21.658Z,8.43
2019-04-03T20:42:50.161Z,10.50
2019-04-03T20:45:19.081Z,24.43
2019-04-03T20:47:48.244Z,10.35
2019-04-03T20:50:17.134Z,9.20
2019-04-03T20:52:46.210Z,9.20
2019-04-03T20:55:15.382Z,10.00
2019-04-03T20:57:54.926Z,10.58
2019-04-03T21:00:18.168Z,9.28
2019-04-03T21:02:44.838Z,10.35
2019-04-03T21:05:13.622Z,9.80
2019-04-03T21:07:42.191Z,14.23
2019-04-03T21:10:11.182Z,12.10
2019-04-03T21:12:39.752Z,9.38
2019-04-03T21:15:09.368Z,9.18
2019-04-03T21:17:38.037Z,30.60
2019-04-03T21:20:06.838Z,16.62
2019-04-03T21:22:35.426Z,19.42
2019-04-03T21:25:07.524Z,16.30
2019-04-03T21:27:36.090Z,12.05
2019-04-03T21:30:08.048Z,18.70
2019-04-03T21:32:36.705Z,22.42
2019-04-03T21:35:05.851Z,11.00
2019-04-03T21:37:34.409Z,13.43
2019-04-03T21:40:04.860Z,9.90
2019-04-03T21:42:33.324Z,15.40
2019-04-03T21:45:02.746Z,28.02
2019-04-03T21:47:32.457Z,12.95
2019-04-03T21:50:03.645Z,13.08
2019-04-03T21:52:31.258Z,10.35
2019-04-03T21:54:59.843Z,9.48
2019-04-03T21:57:28.417Z,8.98
2019-04-03T21:59:56.985Z,8.90
2019-04-03T22:02:25.614Z,7.95
2019-04-03T22:04:54.541Z,8.00
2019-04-03T22:07:23.122Z,7.58
2019-04-03T22:09:51.712Z,7.80
2019-04-03T22:12:20.261Z,6.62
2019-04-03T22:14:48.828Z,6.58
2019-04-03T22:17:17.307Z,6.60
2019-04-03T22:19:45.883Z,6.08
2019-04-03T22:22:14.426Z,5.95
2019-04-03T22:24:43.018Z,5.67
2019-04-03T22:27:12.098Z,6.47
2019-04-03T22:29:40.718Z,5.85
2019-04-03T22:32:09.336Z,6.05
2019-04-03T22:34:37.975Z,5.83
2019-04-03T22:37:06.530Z,6.10
2019-04-03T22:39:35.092Z,5.92
2019-04-03T22:42:03.581Z,6.58
2019-04-03T22:44:32.159Z,5.85
2019-04-03T22:47:00.705Z,6.67
2019-04-03T22:49:29.389Z,6.15
2019-04-03T22:51:57.937Z,7.08
2019-04-03T22:54:26.508Z,7.05
2019-04-03T22:56:55.018Z,7.30
2019-04-03T22:59:24.289Z,7.47
2019-04-03T23:01:52.959Z,6.97
2019-04-03T23:04:21.527Z,6.45
2019-04-03T23:06:50.225Z,6.70
2019-04-03T23:09:18.765Z,6.55
2019-04-03T23:11:47.311Z,5.80
2019-04-03T23:14:15.883Z,6.00
2019-04-03T23:16:44.432Z,5.50
2019-04-03T23:19:13.012Z,6.37
2019-04-03T23:21:41.567Z,6.40
2019-04-03T23:24:10.156Z,7.25
2019-04-03T23:26:38.712Z,6.58
2019-04-03T23:29:07.288Z,5.55
2019-04-03T23:31:35.829Z,5.97
2019-04-03T23:34:04.370Z,6.03
2019-04-03T23:36:32.943Z,5.58
2019-04-03T23:39:01.500Z,5.60
2019-04-03T23:41:30.066Z,5.97
2019-04-03T23:43:58.617Z,5.50
2019-04-03T23:46:27.191Z,5.85
2019-04-03T23:48:55.737Z,5.85
2019-04-03T23:51:27.310Z,4.97
2019-04-03T23:53:54.521Z,5.20
2019-04-03T23:56:23.097Z,5.83
2019-04-03T23:58:51.656Z,5.50
